sensor_id;sensor_type;location;lat;lon;timestamp;temperature;humidity
29353;DHT22;16344;50.364;8.944;2023-04-25T00:00:25;10.40;18.60
29353;DHT22;16344;50.364;8.944;2023-04-25T00:02:51;10.40;19.20
29353;DHT22;16344;50.364;8.944;2023-04-25T00:05:16;10.40;20.10
29353;DHT22;16344;50.364;8.944;2023-04-25T00:07:42;10.40;23.10
29353;DHT22;16344;50.364;8.944;2023-04-25T00:10:09;10.40;22.50
29353;DHT22;16344;50.364;8.944;2023-04-25T00:12:36;10.40;22.10
29353;DHT22;16344;50.364;8.944;2023-04-25T00:15:02;10.50;16.00
29353;DHT22;16344;50.364;8.944;2023-04-25T00:17:28;10.50;18.50
29353;DHT22;16344;50.364;8.944;2023-04-25T00:19:53;10.50;19.60
29353;DHT22;16344;50.364;8.944;2023-04-25T00:22:19;10.50;15.90
29353;DHT22;16344;50.364;8.944;2023-04-25T00:24:44;10.50;16.60
29353;DHT22;16344;50.364;8.944;2023-04-25T00:27:10;10.60;15.20
29353;DHT22;16344;50.364;8.944;2023-04-25T00:29:36;10.60;18.20
29353;DHT22;16344;50.364;8.944;2023-04-25T00:32:01;10.60;15.10
29353;DHT22;16344;50.364;8.944;2023-04-25T00:34:27;10.60;13.50
29353;DHT22;16344;50.364;8.944;2023-04-25T00:36:52;10.60;13.50
29353;DHT22;16344;50.364;8.944;2023-04-25T00:39:18;10.60;18.00
29353;DHT22;16344;50.364;8.944;2023-04-25T00:41:45;10.60;18.00
29353;DHT22;16344;50.364;8.944;2023-04-25T00:44:11;10.50;16.10
29353;DHT22;16344;50.364;8.944;2023-04-25T00:46:38;10.50;18.70
29353;DHT22;16344;50.364;8.944;2023-04-25T00:49:04;10.50;13.30
29353;DHT22;16344;50.364;8.944;2023-04-25T00:51:30;10.50;12.00
29353;DHT22;16344;50.364;8.944;2023-04-25T00:53:57;10.50;13.00
29353;DHT22;16344;50.364;8.944;2023-04-25T00:56:23;10.50;16.40
29353;DHT22;16344;50.364;8.944;2023-04-25T00:58:49;10.40;18.50
29353;DHT22;16344;50.364;8.944;2023-04-25T01:01:15;10.40;15.50
29353;DHT22;16344;50.364;8.944;2023-04-25T01:03:41;10.50;10.90
29353;DHT22;16344;50.364;8.944;2023-04-25T01:06:09;10.40;10.40
29353;DHT22;16344;50.364;8.944;2023-04-25T01:08:36;10.40;9.80
29353;DHT22;16344;50.364;8.944;2023-04-25T01:11:02;10.40;3.30
29353;DHT22;16344;50.364;8.944;2023-04-25T01:13:28;10.40;1.90
29353;DHT22;16344;50.364;8.944;2023-04-25T01:15:53;10.40;2.60
29353;DHT22;16344;50.364;8.944;2023-04-25T01:18:19;10.40;6.10
29353;DHT22;16344;50.364;8.944;2023-04-25T01:20:46;10.30;8.80
29353;DHT22;16344;50.364;8.944;2023-04-25T01:23:15;10.30;8.30
29353;DHT22;16344;50.364;8.944;2023-04-25T01:25:41;10.40;8.10
29353;DHT22;16344;50.364;8.944;2023-04-25T01:28:07;10.40;8.80
29353;DHT22;16344;50.364;8.944;2023-04-25T01:30:33;10.50;1.20
29353;DHT22;16344;50.364;8.944;2023-04-25T01:32:59;10.50;1.00
29353;DHT22;16344;50.364;8.944;2023-04-25T01:35:25;10.40;2.90
29353;DHT22;16344;50.364;8.944;2023-04-25T01:37:51;10.50;1.00
29353;DHT22;16344;50.364;8.944;2023-04-25T01:40:17;10.40;4.40
29353;DHT22;16344;50.364;8.944;2023-04-25T01:42:44;10.30;2.40
29353;DHT22;16344;50.364;8.944;2023-04-25T01:45:11;10.40;1.70
29353;DHT22;16344;50.364;8.944;2023-04-25T01:47:38;10.40;1.00
29353;DHT22;16344;50.364;8.944;2023-04-25T01:50:06;10.30;1.00
29353;DHT22;16344;50.364;8.944;2023-04-25T01:52:32;10.30;1.00
29353;DHT22;16344;50.364;8.944;2023-04-25T01:55:00;10.20;4.10
29353;DHT22;16344;50.364;8.944;2023-04-25T01:57:26;10.10;1.00
29353;DHT22;16344;50.364;8.944;2023-04-25T02:00:00;10.20;1.00
29353;DHT22;16344;50.364;8.944;2023-04-25T02:02:26;10.20;1.00
29353;DHT22;16344;50.364;8.944;2023-04-25T02:04:52;10.10;1.00
29353;DHT22;16344;50.364;8.944;2023-04-25T02:07:17;10.10;1.00
29353;DHT22;16344;50.364;8.944;2023-04-25T02:09:43;10.10;1.00
29353;DHT22;16344;50.364;8.944;2023-04-25T02:12:12;10.10;1.00
29353;DHT22;16344;50.364;8.944;2023-04-25T02:14:38;10.10;1.00
29353;DHT22;16344;50.364;8.944;2023-04-25T02:17:04;10.20;1.00
29353;DHT22;16344;50.364;8.944;2023-04-25T02:19:29;10.20;1.00
29353;DHT22;16344;50.364;8.944;2023-04-25T02:21:55;10.20;1.00
29353;DHT22;16344;50.364;8.944;2023-04-25T02:24:22;10.30;1.00
29353;DHT22;16344;50.364;8.944;2023-04-25T02:26:47;10.30;1.00
29353;DHT22;16344;50.364;8.944;2023-04-25T02:29:15;10.40;1.00
29353;DHT22;16344;50.364;8.944;2023-04-25T02:31:40;10.30;1.00
29353;DHT22;16344;50.364;8.944;2023-04-25T02:34:06;10.20;1.00
29353;DHT22;16344;50.364;8.944;2023-04-25T02:36:31;10.30;1.00
29353;DHT22;16344;50.364;8.944;2023-04-25T02:39:00;10.20;1.00
29353;DHT22;16344;50.364;8.944;2023-04-25T02:41:26;10.20;1.00
29353;DHT22;16344;50.364;8.944;2023-04-25T02:43:51;10.20;1.00
29353;DHT22;16344;50.364;8.944;2023-04-25T02:46:17;10.30;1.00
29353;DHT22;16344;50.364;8.944;2023-04-25T02:48:42;10.30;1.00
29353;DHT22;16344;50.364;8.944;2023-04-25T02:51:09;10.30;1.00
29353;DHT22;16344;50.364;8.944;2023-04-25T02:53:34;10.30;1.00
29353;DHT22;16344;50.364;8.944;2023-04-25T02:56:00;10.30;1.00
29353;DHT22;16344;50.364;8.944;2023-04-25T02:58:25;10.10;1.00
29353;DHT22;16344;50.364;8.944;2023-04-25T03:00:51;10.00;1.00
29353;DHT22;16344;50.364;8.944;2023-04-25T03:03:16;9.80;1.00
29353;DHT22;16344;50.364;8.944;2023-04-25T03:05:50;9.70;1.00
29353;DHT22;16344;50.364;8.944;2023-04-25T03:08:16;9.80;1.00
29353;DHT22;16344;50.364;8.944;2023-04-25T03:10:42;9.60;1.00
29353;DHT22;16344;50.364;8.944;2023-04-25T03:13:07;9.60;1.00
29353;DHT22;16344;50.364;8.944;2023-04-25T03:15:33;9.60;1.00
29353;DHT22;16344;50.364;8.944;2023-04-25T03:17:59;9.50;1.00
29353;DHT22;16344;50.364;8.944;2023-04-25T03:20:24;9.40;1.00
29353;DHT22;16344;50.364;8.944;2023-04-25T03:22:50;9.50;1.00
29353;DHT22;16344;50.364;8.944;2023-04-25T03:25:15;9.50;1.00
29353;DHT22;16344;50.364;8.944;2023-04-25T03:27:41;9.40;1.00
29353;DHT22;16344;50.364;8.944;2023-04-25T03:30:07;9.40;1.00
29353;DHT22;16344;50.364;8.944;2023-04-25T03:32:33;9.20;1.00
29353;DHT22;16344;50.364;8.944;2023-04-25T03:34:59;9.20;1.00
29353;DHT22;16344;50.364;8.944;2023-04-25T03:37:24;9.20;1.00
29353;DHT22;16344;50.364;8.944;2023-04-25T03:39:50;9.20;1.00
29353;DHT22;16344;50.364;8.944;2023-04-25T03:42:16;9.00;1.00
29353;DHT22;16344;50.364;8.944;2023-04-25T03:44:41;9.00;1.00
29353;DHT22;16344;50.364;8.944;2023-04-25T03:47:07;8.90;1.00
29353;DHT22;16344;50.364;8.944;2023-04-25T03:49:33;9.00;1.00
29353;DHT22;16344;50.364;8.944;2023-04-25T03:51:59;9.00;1.00
29353;DHT22;16344;50.364;8.944;2023-04-25T03:54:25;8.70;1.00
29353;DHT22;16344;50.364;8.944;2023-04-25T03:56:51;8.60;1.00
29353;DHT22;16344;50.364;8.944;2023-04-25T03:59:16;8.50;1.00
29353;DHT22;16344;50.364;8.944;2023-04-25T04:01:42;8.50;1.00
29353;DHT22;16344;50.364;8.944;2023-04-25T04:04:07;8.50;1.00
29353;DHT22;16344;50.364;8.944;2023-04-25T04:06:33;8.50;1.00
29353;DHT22;16344;50.364;8.944;2023-04-25T04:08:59;8.40;1.00
29353;DHT22;16344;50.364;8.944;2023-04-25T04:11:24;8.50;1.00
29353;DHT22;16344;50.364;8.944;2023-04-25T04:13:50;8.30;1.00
29353;DHT22;16344;50.364;8.944;2023-04-25T04:16:15;8.40;1.00
29353;DHT22;16344;50.364;8.944;2023-04-25T04:18:41;8.40;1.00
29353;DHT22;16344;50.364;8.944;2023-04-25T04:21:06;8.20;1.00
29353;DHT22;16344;50.364;8.944;2023-04-25T04:23:32;8.20;1.00
29353;DHT22;16344;50.364;8.944;2023-04-25T04:25:57;8.30;1.00
29353;DHT22;16344;50.364;8.944;2023-04-25T04:28:23;8.20;1.00
29353;DHT22;16344;50.364;8.944;2023-04-25T04:30:48;8.20;1.00
29353;DHT22;16344;50.364;8.944;2023-04-25T04:33:16;8.20;1.00
29353;DHT22;16344;50.364;8.944;2023-04-25T04:35:44;8.10;1.00
29353;DHT22;16344;50.364;8.944;2023-04-25T04:38:09;8.10;1.00
29353;DHT22;16344;50.364;8.944;2023-04-25T04:40:36;8.20;1.00
29353;DHT22;16344;50.364;8.944;2023-04-25T04:43:02;8.30;1.00
29353;DHT22;16344;50.364;8.944;2023-04-25T04:45:28;8.30;1.00
29353;DHT22;16344;50.364;8.944;2023-04-25T04:47:53;8.30;1.00
29353;DHT22;16344;50.364;8.944;2023-04-25T04:50:20;8.30;1.00
29353;DHT22;16344;50.364;8.944;2023-04-25T04:52:46;8.50;1.00
29353;DHT22;16344;50.364;8.944;2023-04-25T04:55:11;8.70;1.00
29353;DHT22;16344;50.364;8.944;2023-04-25T04:57:37;9.10;1.00
29353;DHT22;16344;50.364;8.944;2023-04-25T05:00:04;9.60;1.00
29353;DHT22;16344;50.364;8.944;2023-04-25T05:02:30;9.80;99.90
29353;DHT22;16344;50.364;8.944;2023-04-25T05:04:56;9.60;1.00
29353;DHT22;16344;50.364;8.944;2023-04-25T05:07:21;9.80;99.90
29353;DHT22;16344;50.364;8.944;2023-04-25T05:09:47;10.00;99.90
29353;DHT22;16344;50.364;8.944;2023-04-25T05:12:12;10.40;99.90
29353;DHT22;16344;50.364;8.944;2023-04-25T05:14:38;11.20;99.90
29353;DHT22;16344;50.364;8.944;2023-04-25T05:17:03;12.00;33.00
29353;DHT22;16344;50.364;8.944;2023-04-25T05:19:33;12.80;1.00
29353;DHT22;16344;50.364;8.944;2023-04-25T05:21:59;13.60;1.00
29353;DHT22;16344;50.364;8.944;2023-04-25T05:24:24;14.40;1.00
29353;DHT22;16344;50.364;8.944;2023-04-25T05:26:50;15.40;1.00
29353;DHT22;16344;50.364;8.944;2023-04-25T05:29:17;16.50;1.00
29353;DHT22;16344;50.364;8.944;2023-04-25T05:31:42;17.00;1.00
29353;DHT22;16344;50.364;8.944;2023-04-25T05:34:09;17.50;1.00
29353;DHT22;16344;50.364;8.944;2023-04-25T05:36:34;18.00;1.00
29353;DHT22;16344;50.364;8.944;2023-04-25T05:39:00;18.30;1.00
29353;DHT22;16344;50.364;8.944;2023-04-25T05:41:25;18.40;1.00
29353;DHT22;16344;50.364;8.944;2023-04-25T05:43:50;18.60;1.00
29353;DHT22;16344;50.364;8.944;2023-04-25T05:46:16;18.70;1.00
29353;DHT22;16344;50.364;8.944;2023-04-25T05:48:43;19.30;1.00
29353;DHT22;16344;50.364;8.944;2023-04-25T05:51:08;19.90;1.00
29353;DHT22;16344;50.364;8.944;2023-04-25T05:53:34;20.60;1.00
29353;DHT22;16344;50.364;8.944;2023-04-25T05:56:00;20.30;1.00
29353;DHT22;16344;50.364;8.944;2023-04-25T05:58:25;21.00;1.00
29353;DHT22;16344;50.364;8.944;2023-04-25T06:00:51;21.90;99.90
29353;DHT22;16344;50.364;8.944;2023-04-25T06:03:16;22.60;99.90
29353;DHT22;16344;50.364;8.944;2023-04-25T06:05:42;22.80;99.90
29353;DHT22;16344;50.364;8.944;2023-04-25T06:08:08;22.70;99.90
29353;DHT22;16344;50.364;8.944;2023-04-25T06:10:35;22.80;99.90
29353;DHT22;16344;50.364;8.944;2023-04-25T06:13:01;22.50;99.90
29353;DHT22;16344;50.364;8.944;2023-04-25T06:15:26;22.50;99.90
29353;DHT22;16344;50.364;8.944;2023-04-25T06:17:52;21.90;99.90
29353;DHT22;16344;50.364;8.944;2023-04-25T06:20:17;21.60;99.90
29353;DHT22;16344;50.364;8.944;2023-04-25T06:22:43;21.30;99.90
29353;DHT22;16344;50.364;8.944;2023-04-25T06:25:08;21.30;99.90
29353;DHT22;16344;50.364;8.944;2023-04-25T06:27:34;20.80;99.90
29353;DHT22;16344;50.364;8.944;2023-04-25T06:30:00;20.30;99.90
29353;DHT22;16344;50.364;8.944;2023-04-25T06:32:25;20.30;99.90
29353;DHT22;16344;50.364;8.944;2023-04-25T06:34:53;20.20;99.90
29353;DHT22;16344;50.364;8.944;2023-04-25T06:37:18;20.50;99.90
29353;DHT22;16344;50.364;8.944;2023-04-25T06:39:44;20.30;99.90
29353;DHT22;16344;50.364;8.944;2023-04-25T06:42:09;19.30;99.90
29353;DHT22;16344;50.364;8.944;2023-04-25T06:44:35;19.10;99.90
29353;DHT22;16344;50.364;8.944;2023-04-25T06:47:01;18.80;99.90
29353;DHT22;16344;50.364;8.944;2023-04-25T06:49:26;19.10;99.90
29353;DHT22;16344;50.364;8.944;2023-04-25T06:51:52;19.00;99.90
29353;DHT22;16344;50.364;8.944;2023-04-25T06:54:17;19.20;99.90
29353;DHT22;16344;50.364;8.944;2023-04-25T06:56:43;19.00;99.90
29353;DHT22;16344;50.364;8.944;2023-04-25T06:59:08;18.70;99.90
29353;DHT22;16344;50.364;8.944;2023-04-25T07:01:34;18.40;1.00
29353;DHT22;16344;50.364;8.944;2023-04-25T07:04:00;17.90;1.00
29353;DHT22;16344;50.364;8.944;2023-04-25T07:06:26;17.30;1.00
29353;DHT22;16344;50.364;8.944;2023-04-25T07:08:53;16.70;1.00
29353;DHT22;16344;50.364;8.944;2023-04-25T07:11:18;15.50;1.00
29353;DHT22;16344;50.364;8.944;2023-04-25T07:13:44;14.80;1.00
29353;DHT22;16344;50.364;8.944;2023-04-25T07:16:09;14.70;1.00
29353;DHT22;16344;50.364;8.944;2023-04-25T07:18:35;14.50;1.00
29353;DHT22;16344;50.364;8.944;2023-04-25T07:21:00;14.50;1.00
29353;DHT22;16344;50.364;8.944;2023-04-25T07:23:26;14.10;1.00
29353;DHT22;16344;50.364;8.944;2023-04-25T07:25:51;13.50;1.00
29353;DHT22;16344;50.364;8.944;2023-04-25T07:28:17;13.30;1.00
29353;DHT22;16344;50.364;8.944;2023-04-25T07:30:43;13.20;1.00
29353;DHT22;16344;50.364;8.944;2023-04-25T07:33:09;13.00;1.00
29353;DHT22;16344;50.364;8.944;2023-04-25T07:35:34;12.90;1.00
29353;DHT22;16344;50.364;8.944;2023-04-25T07:38:01;12.80;1.00
29353;DHT22;16344;50.364;8.944;2023-04-25T07:40:26;12.80;1.00
29353;DHT22;16344;50.364;8.944;2023-04-25T07:42:52;12.90;1.00
29353;DHT22;16344;50.364;8.944;2023-04-25T07:45:17;13.00;1.00
29353;DHT22;16344;50.364;8.944;2023-04-25T07:47:43;13.50;1.00
29353;DHT22;16344;50.364;8.944;2023-04-25T07:50:09;13.90;1.00
29353;DHT22;16344;50.364;8.944;2023-04-25T07:52:35;14.20;1.00
29353;DHT22;16344;50.364;8.944;2023-04-25T07:55:01;13.90;1.00
29353;DHT22;16344;50.364;8.944;2023-04-25T07:57:26;13.60;1.00
29353;DHT22;16344;50.364;8.944;2023-04-25T07:59:52;13.30;1.00
29353;DHT22;16344;50.364;8.944;2023-04-25T08:02:17;13.10;1.00
29353;DHT22;16344;50.364;8.944;2023-04-25T08:04:43;13.00;1.00
29353;DHT22;16344;50.364;8.944;2023-04-25T08:07:08;13.20;1.00
29353;DHT22;16344;50.364;8.944;2023-04-25T08:09:35;13.10;1.00
29353;DHT22;16344;50.364;8.944;2023-04-25T08:12:02;13.30;1.00
29353;DHT22;16344;50.364;8.944;2023-04-25T08:14:30;13.30;1.00
29353;DHT22;16344;50.364;8.944;2023-04-25T08:17:04;13.30;1.00
29353;DHT22;16344;50.364;8.944;2023-04-25T08:19:30;13.50;1.00
29353;DHT22;16344;50.364;8.944;2023-04-25T08:21:56;13.70;1.00
29353;DHT22;16344;50.364;8.944;2023-04-25T08:24:22;13.70;1.00
29353;DHT22;16344;50.364;8.944;2023-04-25T08:26:48;13.80;1.00
29353;DHT22;16344;50.364;8.944;2023-04-25T08:29:14;13.60;1.00
29353;DHT22;16344;50.364;8.944;2023-04-25T08:31:39;13.50;1.00
29353;DHT22;16344;50.364;8.944;2023-04-25T08:34:05;13.40;1.00
29353;DHT22;16344;50.364;8.944;2023-04-25T08:36:31;13.50;1.00
29353;DHT22;16344;50.364;8.944;2023-04-25T08:38:57;13.60;1.00
29353;DHT22;16344;50.364;8.944;2023-04-25T08:41:23;13.90;1.00
29353;DHT22;16344;50.364;8.944;2023-04-25T08:43:49;14.20;1.00
29353;DHT22;16344;50.364;8.944;2023-04-25T08:46:18;14.20;1.00
29353;DHT22;16344;50.364;8.944;2023-04-25T08:48:45;14.00;1.00
29353;DHT22;16344;50.364;8.944;2023-04-25T08:51:18;14.10;1.00
29353;DHT22;16344;50.364;8.944;2023-04-25T08:53:49;14.10;1.00
29353;DHT22;16344;50.364;8.944;2023-04-25T08:56:16;14.00;1.00
29353;DHT22;16344;50.364;8.944;2023-04-25T08:58:44;14.20;1.00
29353;DHT22;16344;50.364;8.944;2023-04-25T09:01:11;14.40;1.00
29353;DHT22;16344;50.364;8.944;2023-04-25T09:03:36;14.40;1.00
29353;DHT22;16344;50.364;8.944;2023-04-25T09:06:03;14.50;1.00
29353;DHT22;16344;50.364;8.944;2023-04-25T09:08:28;14.80;1.00
29353;DHT22;16344;50.364;8.944;2023-04-25T09:10:54;15.00;1.00
29353;DHT22;16344;50.364;8.944;2023-04-25T09:13:27;15.00;1.00
29353;DHT22;16344;50.364;8.944;2023-04-25T09:15:57;14.90;1.00
29353;DHT22;16344;50.364;8.944;2023-04-25T09:18:29;14.60;1.00
29353;DHT22;16344;50.364;8.944;2023-04-25T09:20:57;14.20;1.00
29353;DHT22;16344;50.364;8.944;2023-04-25T09:23:23;14.30;1.00
29353;DHT22;16344;50.364;8.944;2023-04-25T09:25:51;14.40;1.00
29353;DHT22;16344;50.364;8.944;2023-04-25T09:28:23;14.70;1.00
29353;DHT22;16344;50.364;8.944;2023-04-25T09:30:49;14.60;1.00
29353;DHT22;16344;50.364;8.944;2023-04-25T09:33:14;14.20;1.00
29353;DHT22;16344;50.364;8.944;2023-04-25T09:35:42;14.30;1.00
29353;DHT22;16344;50.364;8.944;2023-04-25T09:38:13;14.20;1.00
29353;DHT22;16344;50.364;8.944;2023-04-25T09:40:44;14.40;1.00
29353;DHT22;16344;50.364;8.944;2023-04-25T09:43:20;14.30;1.00
29353;DHT22;16344;50.364;8.944;2023-04-25T09:45:46;14.00;1.00
29353;DHT22;16344;50.364;8.944;2023-04-25T09:48:17;13.80;1.00
29353;DHT22;16344;50.364;8.944;2023-04-25T09:50:44;13.40;1.00
29353;DHT22;16344;50.364;8.944;2023-04-25T09:53:09;13.40;1.00
29353;DHT22;16344;50.364;8.944;2023-04-25T09:55:35;13.50;1.00
29353;DHT22;16344;50.364;8.944;2023-04-25T09:58:04;13.60;1.00
29353;DHT22;16344;50.364;8.944;2023-04-25T10:00:33;13.50;1.00
29353;DHT22;16344;50.364;8.944;2023-04-25T10:03:01;13.40;1.00
29353;DHT22;16344;50.364;8.944;2023-04-25T10:05:32;13.30;1.00
29353;DHT22;16344;50.364;8.944;2023-04-25T10:08:02;13.20;1.00
29353;DHT22;16344;50.364;8.944;2023-04-25T10:10:29;13.30;1.00
29353;DHT22;16344;50.364;8.944;2023-04-25T10:12:58;13.40;1.00
29353;DHT22;16344;50.364;8.944;2023-04-25T10:15:24;13.40;1.00
29353;DHT22;16344;50.364;8.944;2023-04-25T10:17:50;13.60;1.00
29353;DHT22;16344;50.364;8.944;2023-04-25T10:20:16;13.80;1.00
29353;DHT22;16344;50.364;8.944;2023-04-25T10:22:43;14.20;1.00
29353;DHT22;16344;50.364;8.944;2023-04-25T10:25:10;14.60;1.00
29353;DHT22;16344;50.364;8.944;2023-04-25T10:27:36;14.80;1.00
29353;DHT22;16344;50.364;8.944;2023-04-25T10:30:11;14.90;1.00
29353;DHT22;16344;50.364;8.944;2023-04-25T10:32:41;15.00;1.00
29353;DHT22;16344;50.364;8.944;2023-04-25T10:35:18;14.80;1.00
29353;DHT22;16344;50.364;8.944;2023-04-25T10:38:02;14.60;1.00
29353;DHT22;16344;50.364;8.944;2023-04-25T10:40:28;14.40;1.00
29353;DHT22;16344;50.364;8.944;2023-04-25T10:42:54;14.30;1.00
29353;DHT22;16344;50.364;8.944;2023-04-25T10:45:21;13.90;1.00
29353;DHT22;16344;50.364;8.944;2023-04-25T10:47:46;13.70;1.00
29353;DHT22;16344;50.364;8.944;2023-04-25T10:50:15;13.60;1.00
29353;DHT22;16344;50.364;8.944;2023-04-25T10:52:43;13.60;1.00
29353;DHT22;16344;50.364;8.944;2023-04-25T10:55:10;13.60;1.00
29353;DHT22;16344;50.364;8.944;2023-04-25T10:57:45;13.70;1.00
29353;DHT22;16344;50.364;8.944;2023-04-25T11:00:19;13.90;1.00
29353;DHT22;16344;50.364;8.944;2023-04-25T11:02:52;14.10;1.00
29353;DHT22;16344;50.364;8.944;2023-04-25T11:05:35;14.20;1.00
29353;DHT22;16344;50.364;8.944;2023-04-25T11:08:02;14.40;1.00
29353;DHT22;16344;50.364;8.944;2023-04-25T11:10:29;14.20;1.00
29353;DHT22;16344;50.364;8.944;2023-04-25T11:12:56;13.90;1.00
29353;DHT22;16344;50.364;8.944;2023-04-25T11:15:22;13.70;1.00
29353;DHT22;16344;50.364;8.944;2023-04-25T11:17:48;13.60;1.00
29353;DHT22;16344;50.364;8.944;2023-04-25T11:20:13;13.40;1.00
29353;DHT22;16344;50.364;8.944;2023-04-25T11:22:41;13.50;1.00
29353;DHT22;16344;50.364;8.944;2023-04-25T11:25:08;13.50;1.00
29353;DHT22;16344;50.364;8.944;2023-04-25T11:27:34;13.40;1.00
29353;DHT22;16344;50.364;8.944;2023-04-25T11:30:15;13.20;1.00
29353;DHT22;16344;50.364;8.944;2023-04-25T11:32:41;13.40;1.00
29353;DHT22;16344;50.364;8.944;2023-04-25T11:35:09;13.50;1.00
29353;DHT22;16344;50.364;8.944;2023-04-25T11:37:35;13.40;1.00
29353;DHT22;16344;50.364;8.944;2023-04-25T11:40:00;13.40;1.00
29353;DHT22;16344;50.364;8.944;2023-04-25T11:42:26;13.30;1.00
29353;DHT22;16344;50.364;8.944;2023-04-25T11:44:52;13.30;1.00
29353;DHT22;16344;50.364;8.944;2023-04-25T11:47:17;13.20;1.00
29353;DHT22;16344;50.364;8.944;2023-04-25T11:49:43;13.20;1.00
29353;DHT22;16344;50.364;8.944;2023-04-25T11:52:08;13.00;1.00
29353;DHT22;16344;50.364;8.944;2023-04-25T11:54:37;12.90;1.00
29353;DHT22;16344;50.364;8.944;2023-04-25T11:57:03;12.80;1.00
29353;DHT22;16344;50.364;8.944;2023-04-25T11:59:29;12.80;1.00
29353;DHT22;16344;50.364;8.944;2023-04-25T12:01:54;12.70;1.00
29353;DHT22;16344;50.364;8.944;2023-04-25T12:04:22;12.70;1.00
29353;DHT22;16344;50.364;8.944;2023-04-25T12:06:52;12.90;1.00
29353;DHT22;16344;50.364;8.944;2023-04-25T12:09:20;13.10;1.00
29353;DHT22;16344;50.364;8.944;2023-04-25T12:11:54;13.30;1.00
29353;DHT22;16344;50.364;8.944;2023-04-25T12:14:25;13.40;1.00
29353;DHT22;16344;50.364;8.944;2023-04-25T12:16:52;13.40;1.00
29353;DHT22;16344;50.364;8.944;2023-04-25T12:19:19;13.40;1.00
29353;DHT22;16344;50.364;8.944;2023-04-25T12:21:45;13.20;1.00
29353;DHT22;16344;50.364;8.944;2023-04-25T12:26:52;13.00;1.00
29353;DHT22;16344;50.364;8.944;2023-04-25T12:29:19;13.00;1.00
29353;DHT22;16344;50.364;8.944;2023-04-25T12:31:44;13.00;1.00
29353;DHT22;16344;50.364;8.944;2023-04-25T12:34:10;13.00;1.00
29353;DHT22;16344;50.364;8.944;2023-04-25T12:36:36;13.10;1.00
29353;DHT22;16344;50.364;8.944;2023-04-25T12:39:02;12.90;1.00
29353;DHT22;16344;50.364;8.944;2023-04-25T12:41:29;13.00;1.00
29353;DHT22;16344;50.364;8.944;2023-04-25T12:43:55;13.20;1.00
29353;DHT22;16344;50.364;8.944;2023-04-25T12:46:21;13.50;1.00
29353;DHT22;16344;50.364;8.944;2023-04-25T12:48:48;13.50;1.00
29353;DHT22;16344;50.364;8.944;2023-04-25T12:51:13;13.40;1.00
29353;DHT22;16344;50.364;8.944;2023-04-25T12:53:39;13.50;1.00
29353;DHT22;16344;50.364;8.944;2023-04-25T12:56:09;13.70;1.00
29353;DHT22;16344;50.364;8.944;2023-04-25T12:58:34;13.80;1.00
29353;DHT22;16344;50.364;8.944;2023-04-25T13:01:00;13.90;1.00
29353;DHT22;16344;50.364;8.944;2023-04-25T13:03:26;13.90;1.00
29353;DHT22;16344;50.364;8.944;2023-04-25T13:05:52;14.10;1.00
29353;DHT22;16344;50.364;8.944;2023-04-25T13:08:18;14.40;1.00
29353;DHT22;16344;50.364;8.944;2023-04-25T13:10:44;14.40;1.00
29353;DHT22;16344;50.364;8.944;2023-04-25T13:13:09;14.30;1.00
29353;DHT22;16344;50.364;8.944;2023-04-25T13:15:35;14.00;1.00
29353;DHT22;16344;50.364;8.944;2023-04-25T13:18:02;13.70;1.00
29353;DHT22;16344;50.364;8.944;2023-04-25T13:20:28;13.50;1.00
29353;DHT22;16344;50.364;8.944;2023-04-25T13:22:53;13.40;1.00
29353;DHT22;16344;50.364;8.944;2023-04-25T13:25:19;13.20;1.00
29353;DHT22;16344;50.364;8.944;2023-04-25T13:27:44;13.00;1.00
29353;DHT22;16344;50.364;8.944;2023-04-25T13:30:10;13.00;1.00
29353;DHT22;16344;50.364;8.944;2023-04-25T13:32:37;13.00;1.00
29353;DHT22;16344;50.364;8.944;2023-04-25T13:35:12;13.10;1.00
29353;DHT22;16344;50.364;8.944;2023-04-25T13:37:38;13.30;1.00
29353;DHT22;16344;50.364;8.944;2023-04-25T13:40:06;13.40;1.00
29353;DHT22;16344;50.364;8.944;2023-04-25T13:42:34;13.70;1.00
29353;DHT22;16344;50.364;8.944;2023-04-25T13:44:59;14.00;1.00
29353;DHT22;16344;50.364;8.944;2023-04-25T13:47:26;14.10;1.00
29353;DHT22;16344;50.364;8.944;2023-04-25T13:49:51;14.30;1.00
29353;DHT22;16344;50.364;8.944;2023-04-25T13:52:17;14.50;1.00
29353;DHT22;16344;50.364;8.944;2023-04-25T13:54:43;14.50;1.00
29353;DHT22;16344;50.364;8.944;2023-04-25T13:57:08;14.50;1.00
29353;DHT22;16344;50.364;8.944;2023-04-25T13:59:35;14.60;1.00
29353;DHT22;16344;50.364;8.944;2023-04-25T14:02:01;14.40;1.00
29353;DHT22;16344;50.364;8.944;2023-04-25T14:04:27;14.30;1.00
29353;DHT22;16344;50.364;8.944;2023-04-25T14:06:52;14.30;1.00
29353;DHT22;16344;50.364;8.944;2023-04-25T14:09:19;14.10;1.00
29353;DHT22;16344;50.364;8.944;2023-04-25T14:11:46;14.10;1.00
29353;DHT22;16344;50.364;8.944;2023-04-25T14:14:11;14.30;1.00
29353;DHT22;16344;50.364;8.944;2023-04-25T14:16:38;14.10;1.00
29353;DHT22;16344;50.364;8.944;2023-04-25T14:19:04;14.10;1.00
29353;DHT22;16344;50.364;8.944;2023-04-25T14:21:29;14.10;1.00
29353;DHT22;16344;50.364;8.944;2023-04-25T14:23:57;13.90;1.00
29353;DHT22;16344;50.364;8.944;2023-04-25T14:26:23;13.70;1.00
29353;DHT22;16344;50.364;8.944;2023-04-25T14:28:49;13.60;1.00
29353;DHT22;16344;50.364;8.944;2023-04-25T14:31:15;13.50;1.00
29353;DHT22;16344;50.364;8.944;2023-04-25T14:33:40;13.30;1.00
29353;DHT22;16344;50.364;8.944;2023-04-25T14:36:08;13.20;1.00
29353;DHT22;16344;50.364;8.944;2023-04-25T14:38:33;13.10;1.00
29353;DHT22;16344;50.364;8.944;2023-04-25T14:40:59;13.20;1.00
29353;DHT22;16344;50.364;8.944;2023-04-25T14:43:24;13.10;1.00
29353;DHT22;16344;50.364;8.944;2023-04-25T14:45:50;13.20;1.00
29353;DHT22;16344;50.364;8.944;2023-04-25T14:48:16;13.20;1.00
29353;DHT22;16344;50.364;8.944;2023-04-25T14:50:43;13.20;1.00
29353;DHT22;16344;50.364;8.944;2023-04-25T14:53:08;13.10;1.00
29353;DHT22;16344;50.364;8.944;2023-04-25T14:55:34;13.10;1.00
29353;DHT22;16344;50.364;8.944;2023-04-25T14:58:00;13.10;1.00
29353;DHT22;16344;50.364;8.944;2023-04-25T15:00:26;13.20;1.00
29353;DHT22;16344;50.364;8.944;2023-04-25T15:02:52;13.10;1.00
29353;DHT22;16344;50.364;8.944;2023-04-25T15:05:17;13.10;1.00
29353;DHT22;16344;50.364;8.944;2023-04-25T15:07:43;13.00;1.00
29353;DHT22;16344;50.364;8.944;2023-04-25T15:10:09;13.00;1.00
29353;DHT22;16344;50.364;8.944;2023-04-25T15:12:41;13.10;1.00
29353;DHT22;16344;50.364;8.944;2023-04-25T15:15:08;13.10;1.00
29353;DHT22;16344;50.364;8.944;2023-04-25T15:17:40;13.10;1.00
29353;DHT22;16344;50.364;8.944;2023-04-25T15:20:07;13.00;1.00
29353;DHT22;16344;50.364;8.944;2023-04-25T15:22:38;13.10;1.00
29353;DHT22;16344;50.364;8.944;2023-04-25T15:25:04;13.30;1.00
29353;DHT22;16344;50.364;8.944;2023-04-25T15:27:29;13.30;1.00
29353;DHT22;16344;50.364;8.944;2023-04-25T15:30:06;13.30;1.00
29353;DHT22;16344;50.364;8.944;2023-04-25T15:32:36;13.20;1.00
29353;DHT22;16344;50.364;8.944;2023-04-25T15:35:06;13.30;1.00
29353;DHT22;16344;50.364;8.944;2023-04-25T15:37:32;13.30;1.00
29353;DHT22;16344;50.364;8.944;2023-04-25T15:40:09;13.30;1.00
29353;DHT22;16344;50.364;8.944;2023-04-25T15:42:47;13.30;1.00